Observation data for Levelland on 12/08/2018      Previous  Date       Current Mesonet Observations  Soil Data  Daily Summary Page  Observations in Plain Language
KLD1 080600Z 03007KT M01/M02 A3026 RMK A01 T10051015  RH  094%=      5-min Rain = 0
KLD1 080605Z 03008KT M01/M02 A3026 RMK A01 T10051015  RH  094%=      5-min Rain = 0
KLD1 080610Z 02007KT M01/M02 A3026 RMK A01 T10051015  RH  094%=      5-min Rain = 0
KLD1 080615Z 03009KT M01/M02 A3026 RMK A01 T10061015  RH  094%=      5-min Rain = 0
KLD1 080620Z 03009KT M01/M02 A3026 RMK A01 T10061016  RH  094%=      5-min Rain = 0
KLD1 080625Z 03009KT M01/M02 A3026 RMK A01 T10071016  RH  094%=      5-min Rain = 0
KLD1 080630Z 03008KT M01/M02 A3026 RMK A01 T10071016  RH  094%=      5-min Rain = 0
KLD1 080635Z 02007KT M01/M02 A3026 RMK A01 T10071016  RH  094%=      5-min Rain = 0
KLD1 080640Z 02008KT M01/M02 A3026 RMK A01 T10071016  RH  094%=      5-min Rain = 0
KLD1 080645Z 02008KT M01/M02 A3026 RMK A01 T10071016  RH  094%=      5-min Rain = 0
KLD1 080650Z 02007KT M01/M02 A3026 RMK A01 T10071016  RH  094%=      5-min Rain = 0
KLD1 080655Z 02005KT M01/M02 A3026 RMK A01 T10071016  RH  094%=      5-min Rain = 0
KLD1 080700Z 01006KT M01/M02 A3026 RMK A01 T10071016  RH  094%=      5-min Rain = 0
KLD1 080705Z 01007KT M01/M02 A3026 RMK A01 T10071016  RH  094%=      5-min Rain = 0
KLD1 080710Z 01008KT M01/M02 A3026 RMK A01 T10071016  RH  094%=      5-min Rain = 0
KLD1 080715Z 01008KT M01/M02 A3026 RMK A01 T10081017  RH  095%=      5-min Rain = 0
KLD1 080720Z 02009KT M01/M02 A3026 RMK A01 T10081017  RH  095%=      5-min Rain = 0
KLD1 080725Z 02009KT M01/M02 A3025 RMK A01 T10091017  RH  095%=      5-min Rain = 0
KLD1 080730Z 02009KT M01/M02 A3025 RMK A01 T10091018  RH  095%=      5-min Rain = 0
KLD1 080735Z 02008KT M01/M02 A3025 RMK A01 T10091018  RH  095%=      5-min Rain = 0
KLD1 080740Z 02008KT M01/M02 A3025 RMK A01 T10091018  RH  095%=      5-min Rain = 0
KLD1 080745Z 02008KT M01/M02 A3025 RMK A01 T10091018  RH  095%=      5-min Rain = 0
KLD1 080750Z 01008KT M01/M02 A3025 RMK A01 T10091018  RH  095%=      5-min Rain = 0
KLD1 080755Z 01008KT M01/M02 A3025 RMK A01 T10091018  RH  095%=      5-min Rain = 0
KLD1 080800Z 01009KT M01/M02 A3025 RMK A01 T10091018  RH  095%=      5-min Rain = 0
KLD1 080805Z 02009KT M01/M02 A3025 RMK A01 T10091018  RH  095%=      5-min Rain = 0
KLD1 080810Z 02009KT M01/M02 A3025 RMK A01 T10091018  RH  095%=      5-min Rain = 0
KLD1 080815Z 02010KT M01/M02 A3024 RMK A01 T10101018  RH  095%=      5-min Rain = 0
KLD1 080820Z 02010KT M01/M02 A3024 RMK A01 T10101018  RH  095%=      5-min Rain = 0
KLD1 080825Z 02009KT M01/M02 A3024 RMK A01 T10101019  RH  095%=      5-min Rain = 0
KLD1 080830Z 02010KT M01/M02 A3024 RMK A01 T10101019  RH  095%=      5-min Rain = 0
KLD1 080835Z 01010KT M01/M02 A3024 RMK A01 T10101019  RH  095%=      5-min Rain = 0
KLD1 080840Z 02010KT M01/M02 A3024 RMK A01 T10111019  RH  095%=      5-min Rain = 0
KLD1 080845Z 01009KT M01/M02 A3024 RMK A01 T10111019  RH  095%=      5-min Rain = 0
KLD1 080850Z 01009KT M01/M02 A3024 RMK A01 T10111019  RH  095%=      5-min Rain = 0
KLD1 080855Z 01009KT M01/M02 A3024 RMK A01 T10111019  RH  095%=      5-min Rain = 0
KLD1 080900Z 01010KT M01/M02 A3024 RMK A01 T10111019  RH  095%=      5-min Rain = 0
KLD1 080905Z 01011KT M01/M02 A3023 RMK A01 T10111019  RH  095%=      5-min Rain = 0
KLD1 080910Z 01011KT M01/M02 A3023 RMK A01 T10121020  RH  095%=      5-min Rain = 0
KLD1 080915Z 01010KT M01/M02 A3023 RMK A01 T10121020  RH  095%=      5-min Rain = 0
KLD1 080920Z 01010KT M01/M02 A3023 RMK A01 T10121020  RH  095%=      5-min Rain = 0
KLD1 080925Z 02010KT M01/M02 A3023 RMK A01 T10121020  RH  095%=      5-min Rain = 0
KLD1 080930Z 02010KT M01/M02 A3023 RMK A01 T10121020  RH  095%=      5-min Rain = 0
KLD1 080935Z 01009KT M01/M02 A3023 RMK A01 T10121020  RH  095%=      5-min Rain = 0
KLD1 080940Z 01010KT M01/M02 A3022 RMK A01 T10121020  RH  095%=      5-min Rain = 0
KLD1 080945Z 01010KT M01/M02 A3022 RMK A01 T10121020  RH  095%=      5-min Rain = 0
KLD1 080950Z 01011G16KT M01/M02 A3022 RMK A01 T10121020  RH  095%=      5-min Rain = 0
KLD1 080955Z 02012KT M01/M02 A3022 RMK A01 T10121020  RH  095%=      5-min Rain = 0
KLD1 081000Z 02011KT M01/M02 A3022 RMK A01 T10121020  RH  095%=      5-min Rain = 0
KLD1 081005Z 01011KT M01/M02 A3022 RMK A01 T10121020  RH  095%=      5-min Rain = 0
KLD1 081010Z 01011KT M01/M02 A3022 RMK A01 T10121020  RH  095%=      5-min Rain = 0
KLD1 081015Z 01011KT M01/M02 A3022 RMK A01 T10121020  RH  095%=      5-min Rain = 0
KLD1 081020Z 01010KT M01/M02 A3021 RMK A01 T10121020  RH  095%=      5-min Rain = 0
KLD1 081025Z 01009KT M01/M02 A3022 RMK A01 T10121020  RH  095%=      5-min Rain = 0
KLD1 081030Z 01010KT M01/M02 A3022 RMK A01 T10121020  RH  095%=      5-min Rain = 0
KLD1 081035Z 01010KT M01/M02 A3022 RMK A01 T10121020  RH  095%=      5-min Rain = 0
KLD1 081040Z 01009KT M01/M02 A3022 RMK A01 T10121020  RH  095%=      5-min Rain = 0
KLD1 081045Z 01008KT M01/M02 A3022 RMK A01 T10121020  RH  095%=      5-min Rain = 0
KLD1 081050Z 01008KT M01/M02 A3022 RMK A01 T10121020  RH  095%=      5-min Rain = 0
KLD1 081055Z 01008KT M01/M02 A3023 RMK A01 T10121020  RH  095%=      5-min Rain = 0
KLD1 081100Z 01007KT M01/M02 A3023 RMK A01 T10121020  RH  095%=      5-min Rain = 0
KLD1 081105Z 01006KT M01/M02 A3023 RMK A01 T10121020  RH  095%=      5-min Rain = 0
KLD1 081110Z 01006KT M01/M02 A3023 RMK A01 T10121020  RH  095%=      5-min Rain = 0
KLD1 081115Z 01006KT M01/M02 A3023 RMK A01 T10121020  RH  095%=      5-min Rain = 0
KLD1 081120Z 36005KT M01/M02 A3024 RMK A01 T10121020  RH  095%=      5-min Rain = 0
KLD1 081125Z 00006KT M01/M02 A3024 RMK A01 T10121020  RH  095%=      5-min Rain = 0
KLD1 081130Z 00006KT M01/M02 A3024 RMK A01 T10121020  RH  095%=      5-min Rain = 0
KLD1 081135Z 36005KT M01/M02 A3024 RMK A01 T10121020  RH  095%=      5-min Rain = 0
KLD1 081140Z 35005KT M01/M02 A3024 RMK A01 T10121020  RH  095%=      5-min Rain = 0
KLD1 081145Z 35006KT M01/M02 A3024 RMK A01 T10121020  RH  095%=      5-min Rain = 0
KLD1 081150Z 35008KT M01/M02 A3024 RMK A01 T10121020  RH  095%=      5-min Rain = 0
KLD1 081155Z 35007KT M01/M02 A3024 RMK A01 T10121020  RH  095%=      5-min Rain = 0
KLD1 081200Z 36007KT M01/M02 A3025 RMK A01 T10121020  RH  095%=      5-min Rain = 0
KLD1 081205Z 36007KT M01/M02 A3025 RMK A01 T10121020  RH  095%=      5-min Rain = 0
KLD1 081210Z 36007KT M01/M02 A3025 RMK A01 T10121020  RH  095%=      5-min Rain = 0
KLD1 081215Z 35007KT M01/M02 A3025 RMK A01 T10121020  RH  095%=      5-min Rain = 0
KLD1 081220Z 36007KT M01/M02 A3025 RMK A01 T10121020  RH  095%=      5-min Rain = 0
KLD1 081225Z 36007KT M01/M02 A3025 RMK A01 T10121020  RH  095%=      5-min Rain = 0
KLD1 081230Z 35007KT M01/M02 A3025 RMK A01 T10121020  RH  095%=      5-min Rain = 0
KLD1 081235Z 35007KT M01/M02 A3025 RMK A01 T10111019  RH  095%=      5-min Rain = 0
KLD1 081240Z 36007KT M01/M02 A3025 RMK A01 T10111019  RH  095%=      5-min Rain = 0
KLD1 081245Z 36006KT M01/M02 A3025 RMK A01 T10111019  RH  095%=      5-min Rain = 0
KLD1 081250Z 36007KT M01/M02 A3025 RMK A01 T10111019  RH  095%=      5-min Rain = 0
KLD1 081255Z 36007KT M01/M02 A3025 RMK A01 T10111019  RH  095%=      5-min Rain = 0
KLD1 081300Z 36007KT M01/M02 A3026 RMK A01 T10111019  RH  095%=      5-min Rain = 0
KLD1 081305Z 36007KT M01/M02 A3026 RMK A01 T10111019  RH  095%=      5-min Rain = 0
KLD1 081310Z 00007KT M01/M02 A3026 RMK A01 T10111019  RH  095%=      5-min Rain = 0
KLD1 081315Z 00008KT M01/M02 A3026 RMK A01 T10111018  RH  095%=      5-min Rain = 0
KLD1 081320Z 00008KT M01/M02 A3026 RMK A01 T10101018  RH  095%=      5-min Rain = 0
KLD1 081325Z 00008KT M01/M02 A3026 RMK A01 T10101018  RH  095%=      5-min Rain = 0
KLD1 081330Z 01009KT M01/M02 A3027 RMK A01 T10101018  RH  095%=      5-min Rain = 0
KLD1 081335Z 01008KT M01/M02 A3027 RMK A01 T10101018  RH  095%=      5-min Rain = 0
KLD1 081340Z 01008KT M01/M02 A3027 RMK A01 T10111018  RH  095%=      5-min Rain = 0
KLD1 081345Z 00008KT M01/M02 A3027 RMK A01 T10111019  RH  095%=      5-min Rain = 0
KLD1 081350Z 00008KT M01/M02 A3027 RMK A01 T10111019  RH  095%=      5-min Rain = 0
KLD1 081355Z 00007KT M01/M02 A3028 RMK A01 T10111019  RH  095%=      5-min Rain = 0
KLD1 081400Z 36008KT M01/M02 A3028 RMK A01 T10111019  RH  095%=      5-min Rain = 0
KLD1 081405Z 36007KT M01/M02 A3028 RMK A01 T10111019  RH  095%=      5-min Rain = 0
KLD1 081410Z 36008KT M01/M02 A3028 RMK A01 T10111019  RH  095%=      5-min Rain = 0
KLD1 081415Z 36009KT M01/M02 A3028 RMK A01 T10111019  RH  095%=      5-min Rain = 0
KLD1 081420Z 00008KT M01/M02 A3029 RMK A01 T10111019  RH  095%=      5-min Rain = 0
KLD1 081425Z 00008KT M01/M02 A3029 RMK A01 T10101018  RH  095%=      5-min Rain = 0
KLD1 081430Z 35007KT M01/M02 A3029 RMK A01 T10101018  RH  095%=      5-min Rain = 0
KLD1 081435Z 35008KT M01/M02 A3029 RMK A01 T10101018  RH  095%=      5-min Rain = 0
KLD1 081440Z 35008KT M01/M02 A3029 RMK A01 T10091017  RH  095%=      5-min Rain = 0
KLD1 081445Z 35007KT M01/M02 A303 RMK A01 T10091017  RH  095%=      5-min Rain = 0
KLD1 081450Z 35007KT M01/M02 A303 RMK A01 T10091017  RH  095%=      5-min Rain = 0
KLD1 081455Z 35007KT M01/M02 A303 RMK A01 T10081016  RH  095%=      5-min Rain = 0
KLD1 081500Z 35006KT M01/M02 A303 RMK A01 T10071015  RH  095%=      5-min Rain = 0
KLD1 081505Z 34006KT M01/M02 A303 RMK A01 T10071015  RH  095%=      5-min Rain = 0
KLD1 081510Z 35006KT M01/M01 A303 RMK A01 T10061014  RH  095%=      5-min Rain = 0
KLD1 081515Z 35007KT M01/M01 A303 RMK A01 T10061014  RH  095%=      5-min Rain = 0
KLD1 081520Z 35006KT M01/M01 A303 RMK A01 T10051013  RH  095%=      5-min Rain = 0
KLD1 081525Z 35007KT M01/M01 A303 RMK A01 T10051013  RH  095%=      5-min Rain = 0
KLD1 081530Z 36007KT M00/M01 A3031 RMK A01 T10041013  RH  095%=      5-min Rain = 0
KLD1 081535Z 36007KT M00/M01 A3031 RMK A01 T10041012  RH  095%=      5-min Rain = 0
KLD1 081540Z 36008KT M00/M01 A3031 RMK A01 T10041012  RH  095%=      5-min Rain = 0
KLD1 081545Z 00008KT M00/M01 A3031 RMK A01 T10041012  RH  095%=      5-min Rain = 0
KLD1 081550Z 01006KT M00/M01 A3031 RMK A01 T10031012  RH  095%=      5-min Rain = 0
KLD1 081555Z 01007KT M00/M01 A3031 RMK A01 T10031011  RH  095%=      5-min Rain = 0
KLD1 081600Z 00006KT M00/M01 A3031 RMK A01 T10031011  RH  095%=      5-min Rain = 0
KLD1 081605Z 00006KT M00/M01 A3031 RMK A01 T10031011  RH  095%=      5-min Rain = 0
KLD1 081610Z 00007KT M00/M01 A3031 RMK A01 T10021011  RH  095%=      5-min Rain = 0
KLD1 081615Z 00006KT M00/M01 A3031 RMK A01 T10021010  RH  095%=      5-min Rain = 0
KLD1 081620Z 00007KT M00/M01 A3031 RMK A01 T10021010  RH  095%=      5-min Rain = 0
KLD1 081625Z 36007KT M00/M01 A3031 RMK A01 T10021010  RH  095%=      5-min Rain = 0
KLD1 081630Z 00008KT M00/M01 A3031 RMK A01 T10021010  RH  095%=      5-min Rain = 0
KLD1 081635Z 00007KT M00/M01 A3032 RMK A01 T10021010  RH  095%=      5-min Rain = 0
KLD1 081640Z 00007KT M00/M01 A3032 RMK A01 T10011010  RH  095%=      5-min Rain = 0
KLD1 081645Z 01007KT M00/M01 A3032 RMK A01 T10011009  RH  095%=      5-min Rain = 0
KLD1 081650Z 00007KT M00/M01 A3032 RMK A01 T10011009  RH  095%=      5-min Rain = 0
KLD1 081655Z 36007KT M00/M01 A3032 RMK A01 T10011009  RH  095%=      5-min Rain = 0
KLD1 081700Z 35006KT 00/01 A3032 RMK A01 T00-000-9  RH  095%=      5-min Rain = 0
KLD1 081705Z 35006KT 00/M01 A3032 RMK A01 T00011008  RH  095%=      5-min Rain = 0
KLD1 081710Z 35006KT 00/M01 A3032 RMK A01 T00021007  RH  095%=      5-min Rain = 0
KLD1 081715Z 35006KT 00/M01 A3032 RMK A01 T00021006  RH  095%=      5-min Rain = 0
KLD1 081720Z 36006KT 00/M01 A3032 RMK A01 T00041005  RH  095%=      5-min Rain = 0
KLD1 081725Z 36006KT 01/M00 A3032 RMK A01 T00051004  RH  095%=      5-min Rain = 0
KLD1 081730Z 35005KT 01/M00 A3031 RMK A01 T00081001  RH  095%=      5-min Rain = 0
KLD1 081735Z 36007KT 01/00 A3032 RMK A01 T000900-0  RH  095%=      5-min Rain = 0
KLD1 081740Z 36005KT 01/00 A3031 RMK A01 T00100001  RH  095%=      5-min Rain = 0.01
KLD1 081745Z 35005KT 01/00 A3031 RMK A01 T00130003  RH  095%=      5-min Rain = 0.01
KLD1 081750Z 00006KT 01/00 A3031 RMK A01 T00110002  RH  095%=      5-min Rain = 0.02
KLD1 081755Z 36006KT 01/00 A3031 RMK A01 T00110002  RH  095%=      5-min Rain = 0.01
KLD1 081800Z 01006KT 01/00 A3031 RMK A01 T00120003  RH  095%=      5-min Rain = 0.01
KLD1 081805Z 00006KT 01/01 A303 RMK A01 T00140005  RH  095%=      5-min Rain = 0.01
KLD1 081810Z 00006KT 02/01 A303 RMK A01 T00150005  RH  095%=      5-min Rain = 0.01
KLD1 081815Z 00006KT 02/01 A303 RMK A01 T00150006  RH  095%=      5-min Rain = 0.01
KLD1 081820Z 00006KT 02/01 A303 RMK A01 T00160006  RH  095%=      5-min Rain = 0.02
KLD1 081825Z 01006KT 02/01 A3029 RMK A01 T00170007  RH  095%=      5-min Rain = 0.01
KLD1 081830Z 01006KT 02/01 A3029 RMK A01 T00170007  RH  095%=      5-min Rain = 0.02
KLD1 081835Z 01006KT 02/01 A3029 RMK A01 T00160007  RH  095%=      5-min Rain = 0.02
KLD1 081840Z 36005KT 02/01 A3029 RMK A01 T00160007  RH  095%=      5-min Rain = 0.01
KLD1 081845Z 01006KT 01/00 A3028 RMK A01 T00120003  RH  095%=      5-min Rain = 0.02
KLD1 081850Z 00005KT 01/00 A3028 RMK A01 T00100002  RH  095%=      5-min Rain = 0.01
KLD1 081855Z 36006KT 01/00 A3028 RMK A01 T00110002  RH  095%=      5-min Rain = 0.02
KLD1 081900Z 01005KT 01/00 A3027 RMK A01 T00120003  RH  095%=      5-min Rain = 0.01
KLD1 081905Z 00005KT 01/00 A3027 RMK A01 T00120003  RH  095%=      5-min Rain = 0.02
KLD1 081910Z 35004KT 01/00 A3027 RMK A01 T00120003  RH  095%=      5-min Rain = 0.02
KLD1 081915Z 35005KT 01/00 A3027 RMK A01 T00100001  RH  095%=      5-min Rain = 0.02
KLD1 081920Z 34005KT 00/M01 A3027 RMK A01 T00031006  RH  095%=      5-min Rain = 0.02
KLD1 081925Z 33004KT 00/M01 A3027 RMK A01 T00011008  RH  095%=      5-min Rain = 0.02
KLD1 081930Z 33004KT 00/01 A3027 RMK A01 T000000-8  RH  095%=      5-min Rain = 0.02
KLD1 081935Z 31005KT 00/01 A3027 RMK A01 T00-000-9  RH  095%=      5-min Rain = 0.02
KLD1 081940Z 31005KT M00/M01 A3026 RMK A01 T10011009  RH  095%=      5-min Rain = 0.01
KLD1 081945Z 32005KT 00/01 A3026 RMK A01 T000000-9  RH  095%=      5-min Rain = 0.02
KLD1 081950Z 32006KT 00/01 A3026 RMK A01 T00-000-9  RH  095%=      5-min Rain = 0.02
KLD1 081955Z 32005KT 00/01 A3026 RMK A01 T000000-8  RH  095%=      5-min Rain = 0.02
KLD1 082000Z 32005KT 00/01 A3026 RMK A01 T000000-8  RH  095%=      5-min Rain = 0.02
KLD1 082005Z 32005KT 00/M01 A3025 RMK A01 T00011008  RH  095%=      5-min Rain = 0.01
KLD1 082010Z 32005KT 00/01 A3025 RMK A01 T000000-8  RH  095%=      5-min Rain = 0.02
KLD1 082015Z 31005KT 00/M01 A3025 RMK A01 T00011008  RH  095%=      5-min Rain = 0.02
KLD1 082020Z 31005KT 00/M01 A3025 RMK A01 T00011007  RH  095%=      5-min Rain = 0.01
KLD1 082025Z 31006KT 00/M01 A3025 RMK A01 T00021007  RH  095%=      5-min Rain = 0.01
KLD1 082030Z 31005KT 00/M01 A3025 RMK A01 T00031005  RH  095%=      5-min Rain = 0.02
KLD1 082035Z 32005KT 00/M01 A3024 RMK A01 T00041005  RH  095%=      5-min Rain = 0.03
KLD1 082040Z 31005KT 00/M01 A3024 RMK A01 T00041005  RH  095%=      5-min Rain = 0.02
KLD1 082045Z 32005KT 00/M01 A3024 RMK A01 T00041005  RH  095%=      5-min Rain = 0.02
KLD1 082050Z 32005KT 00/M01 A3024 RMK A01 T00041005  RH  095%=      5-min Rain = 0.01
KLD1 082055Z 33006KT 00/M01 A3024 RMK A01 T00031006  RH  095%=      5-min Rain = 0.02
KLD1 082100Z 32004KT 00/M01 A3024 RMK A01 T00021006  RH  095%=      5-min Rain = 0.02
KLD1 082105Z 33004KT 00/M01 A3024 RMK A01 T00041005  RH  095%=      5-min Rain = 0.01
KLD1 082110Z 31004KT 01/M00 A3024 RMK A01 T00051004  RH  095%=      5-min Rain = 0.02
KLD1 082115Z 31004KT 01/M00 A3024 RMK A01 T00071002  RH  095%=      5-min Rain = 0.01
KLD1 082120Z 32004KT 01/M00 A3024 RMK A01 T00081001  RH  095%=      5-min Rain = 0.02
KLD1 082125Z 32004KT 01/00 A3024 RMK A01 T000900-0  RH  095%=      5-min Rain = 0.01
KLD1 082130Z 33004KT 01/M00 A3024 RMK A01 T00091001  RH  094%=      5-min Rain = 0
KLD1 082135Z 33004KT 01/M00 A3024 RMK A01 T00091001  RH  094%=      5-min Rain = 0.01
KLD1 082140Z 34004KT 01/00 A3024 RMK A01 T001000-0  RH  094%=      5-min Rain = 0
KLD1 082145Z 33003KT 01/M00 A3024 RMK A01 T00091002  RH  094%=      5-min Rain = 0
KLD1 082150Z 33003KT 01/M00 A3024 RMK A01 T00101001  RH  093%=      5-min Rain = 0
KLD1 082155Z 34003KT 01/M00 A3024 RMK A01 T00111002  RH  092%=      5-min Rain = 0
KLD1 082200Z 34004KT 01/M01 A3024 RMK A01 T00111005  RH  090%=      5-min Rain = 0
KLD1 082205Z 33003KT 01/M01 A3024 RMK A01 T00121008  RH  087%=      5-min Rain = 0
KLD1 082210Z 34004KT 01/M01 A3024 RMK A01 T00131011  RH  085%=      5-min Rain = 0
KLD1 082215Z 34003KT 01/M01 A3024 RMK A01 T00131014  RH  083%=      5-min Rain = 0
KLD1 082220Z 34002KT 01/M01 A3024 RMK A01 T00141013  RH  083%=      5-min Rain = 0
KLD1 082225Z 34002KT 02/M01 A3024 RMK A01 T00151014  RH  082%=      5-min Rain = 0
KLD1 082230Z 33002KT 02/M01 A3024 RMK A01 T00161014  RH  081%=      5-min Rain = 0
KLD1 082235Z 33002KT 02/M02 A3024 RMK A01 T00171015  RH  080%=      5-min Rain = 0
KLD1 082240Z 32002KT 02/M02 A3024 RMK A01 T00171016  RH  079%=      5-min Rain = 0
KLD1 082245Z 32001KT 02/M02 A3024 RMK A01 T00181016  RH  079%=      5-min Rain = 0
KLD1 082250Z 03001KT 02/M02 A3024 RMK A01 T00181017  RH  078%=      5-min Rain = 0
KLD1 082255Z 08002KT 01/M02 A3024 RMK A01 T00111021  RH  080%=      5-min Rain = 0
KLD1 082300Z 08002KT 01/M02 A3023 RMK A01 T00071021  RH  082%=      5-min Rain = 0
KLD1 082305Z 08002KT 01/M02 A3024 RMK A01 T00061020  RH  083%=      5-min Rain = 0
KLD1 082310Z 09002KT 01/M02 A3024 RMK A01 T00051021  RH  084%=      5-min Rain = 0
KLD1 082315Z 08002KT 00/M02 A3023 RMK A01 T00021022  RH  084%=      5-min Rain = 0
KLD1 082320Z 07002KT 00/M02 A3023 RMK A01 T00011023  RH  085%=      5-min Rain = 0
KLD1 082325Z 08002KT M00/M02 A3023 RMK A01 T10011023  RH  086%=      5-min Rain = 0
KLD1 082330Z 09003KT M00/M03 A3023 RMK A01 T10041025  RH  086%=      5-min Rain = 0
KLD1 082335Z 11002KT M01/M03 A3024 RMK A01 T10051025  RH  087%=      5-min Rain = 0
KLD1 082340Z 10002KT M01/M03 A3024 RMK A01 T10061025  RH  088%=      5-min Rain = 0
KLD1 082345Z 11002KT M01/M03 A3024 RMK A01 T10071025  RH  088%=      5-min Rain = 0
KLD1 082350Z 12002KT M01/M03 A3024 RMK A01 T10091026  RH  089%=      5-min Rain = 0
KLD1 082355Z 12002KT M01/M03 A3024 RMK A01 T10101027  RH  089%=      5-min Rain = 0
KLD1 090000Z 11002KT M01/M03 A3024 RMK A01 T10111027  RH  089%=      5-min Rain = 0
KLD1 090005Z 10003KT M01/M03 A3024 RMK A01 T10111026  RH  090%=      5-min Rain = 0
KLD1 090010Z 10002KT M01/M03 A3025 RMK A01 T10131028  RH  090%=      5-min Rain = 0
KLD1 090015Z 11002KT M02/M03 A3025 RMK A01 T10161031  RH  090%=      5-min Rain = 0
KLD1 090020Z 11003KT M02/M03 A3025 RMK A01 T10181033  RH  090%=      5-min Rain = 0
KLD1 090025Z 11004KT M02/M03 A3025 RMK A01 T10181031  RH  091%=      5-min Rain = 0
KLD1 090030Z 11004KT M02/M03 A3025 RMK A01 T10181031  RH  092%=      5-min Rain = 0
KLD1 090035Z 12003KT M02/M04 A3025 RMK A01 T10231036  RH  091%=      5-min Rain = 0
KLD1 090040Z 12003KT M03/M04 A3025 RMK A01 T10261039  RH  091%=      5-min Rain = 0
KLD1 090045Z 11004KT M03/M04 A3025 RMK A01 T10311043  RH  091%=      5-min Rain = 0
KLD1 090050Z 12004KT M03/M04 A3025 RMK A01 T10311043  RH  092%=      5-min Rain = 0
KLD1 090055Z 12003KT M03/M04 A3025 RMK A01 T10321044  RH  092%=      5-min Rain = 0
KLD1 090100Z 12002KT M03/M05 A3025 RMK A01 T10341045  RH  092%=      5-min Rain = 0
KLD1 090105Z 12002KT M04/M05 A3025 RMK A01 T10361048  RH  092%=      5-min Rain = 0
KLD1 090110Z 15002KT M04/M05 A3025 RMK A01 T10371048  RH  092%=      5-min Rain = 0
KLD1 090115Z 15003KT M04/M05 A3025 RMK A01 T10361047  RH  093%=      5-min Rain = 0
KLD1 090120Z 14002KT M04/M05 A3025 RMK A01 T10401050  RH  093%=      5-min Rain = 0
KLD1 090125Z 15002KT M04/M05 A3025 RMK A01 T10421052  RH  093%=      5-min Rain = 0
KLD1 090130Z 15002KT M04/M05 A3026 RMK A01 T10431053  RH  093%=      5-min Rain = 0
KLD1 090135Z 15001KT M04/M05 A3026 RMK A01 T10431053  RH  093%=      5-min Rain = 0
KLD1 090140Z 15001KT M04/M05 A3026 RMK A01 T10411051  RH  093%=      5-min Rain = 0
KLD1 090145Z 16001KT M04/M05 A3026 RMK A01 T10401049  RH  094%=      5-min Rain = 0
KLD1 090150Z 16001KT M04/M05 A3026 RMK A01 T10391049  RH  094%=      5-min Rain = 0
KLD1 090155Z 16001KT M04/M05 A3026 RMK A01 T10411050  RH  094%=      5-min Rain = 0
KLD1 090200Z 16001KT M05/M05 A3026 RMK A01 T10451054  RH  094%=      5-min Rain = 0
KLD1 090205Z 16001KT M05/M06 A3027 RMK A01 T10491058  RH  094%=      5-min Rain = 0
KLD1 090210Z 15002KT M05/M06 A3027 RMK A01 T10511060  RH  094%=      5-min Rain = 0
KLD1 090215Z 14002KT M06/M07 A3027 RMK A01 T10581067  RH  093%=      5-min Rain = 0
KLD1 090220Z 13002KT M06/M07 A3027 RMK A01 T10641074  RH  093%=      5-min Rain = 0
KLD1 090225Z 15002KT M07/M08 A3027 RMK A01 T10651075  RH  093%=      5-min Rain = 0
KLD1 090230Z 16002KT M06/M07 A3027 RMK A01 T10621071  RH  093%=      5-min Rain = 0
KLD1 090235Z 16002KT M06/M07 A3027 RMK A01 T10581067  RH  094%=      5-min Rain = 0
KLD1 090240Z 16002KT M06/M07 A3027 RMK A01 T10611070  RH  094%=      5-min Rain = 0
KLD1 090245Z 17003KT M07/M07 A3027 RMK A01 T10651074  RH  093%=      5-min Rain = 0
KLD1 090250Z 18003KT M07/M08 A3028 RMK A01 T10661075  RH  093%=      5-min Rain = 0
KLD1 090255Z 17003KT M06/M07 A3028 RMK A01 T10641073  RH  093%=      5-min Rain = 0
KLD1 090300Z 19003KT M07/M08 A3028 RMK A01 T10661075  RH  093%=      5-min Rain = 0
KLD1 090305Z 20003KT M07/M08 A3028 RMK A01 T10701079  RH  093%=      5-min Rain = 0
KLD1 090310Z 23003KT M08/M08 A3028 RMK A01 T10751084  RH  093%=      5-min Rain = 0
KLD1 090315Z 24004KT M08/M09 A3028 RMK A01 T10781088  RH  093%=      5-min Rain = 0
KLD1 090320Z 24005KT M08/M09 A3028 RMK A01 T10801090  RH  092%=      5-min Rain = 0
KLD1 090325Z 23006KT M08/M09 A3028 RMK A01 T10811091  RH  092%=      5-min Rain = 0
KLD1 090330Z 23006KT M08/M09 A3028 RMK A01 T10811091  RH  092%=      5-min Rain = 0
KLD1 090335Z 23006KT M08/M09 A3028 RMK A01 T10811091  RH  092%=      5-min Rain = 0
KLD1 090340Z 23007KT M08/M09 A3029 RMK A01 T10791089  RH  092%=      5-min Rain = 0
KLD1 090345Z 23006KT M08/M09 A3029 RMK A01 T10761086  RH  093%=      5-min Rain = 0
KLD1 090350Z 23005KT M07/M08 A3029 RMK A01 T10731082  RH  093%=      5-min Rain = 0
KLD1 090355Z 23001KT M07/M08 A3029 RMK A01 T10731083  RH  093%=      5-min Rain = 0
KLD1 090400Z 22001KT M08/M09 A3029 RMK A01 T10781088  RH  092%=      5-min Rain = 0
KLD1 090405Z 21000KT M08/M09 A3029 RMK A01 T10791089  RH  092%=      5-min Rain = 0
KLD1 090410Z 07000KT M08/M09 A3029 RMK A01 T10811092  RH  092%=      5-min Rain = 0
KLD1 090415Z 07000KT M08/M09 A3029 RMK A01 T10831094  RH  092%=      5-min Rain = 0
KLD1 090420Z 26001KT M08/M09 A303 RMK A01 T10831094  RH  091%=      5-min Rain = 0
KLD1 090425Z 26003KT M08/M09 A303 RMK A01 T10831094  RH  091%=      5-min Rain = 0
KLD1 090430Z 26003KT M08/M10 A303 RMK A01 T10841096  RH  091%=      5-min Rain = 0
KLD1 090435Z 27002KT M09/M10 A303 RMK A01 T10861097  RH  091%=      5-min Rain = 0
KLD1 090440Z 27003KT M09/M10 A303 RMK A01 T10861098  RH  091%=      5-min Rain = 0
KLD1 090445Z 28004KT M09/M10 A303 RMK A01 T10861097  RH  091%=      5-min Rain = 0
KLD1 090450Z 28003KT M09/M10 A303 RMK A01 T10861097  RH  091%=      5-min Rain = 0
KLD1 090455Z 30003KT M09/M10 A303 RMK A01 T10871098  RH  091%=      5-min Rain = 0
KLD1 090500Z 30003KT M09/M10 A303 RMK A01 T10871099  RH  091%=      5-min Rain = 0
KLD1 090505Z 29004KT M09/M10 A3029 RMK A01 T10881100  RH  091%=      5-min Rain = 0
KLD1 090510Z 27004KT M09/M10 A303 RMK A01 T10901102  RH  091%=      5-min Rain = 0
KLD1 090515Z 26005KT M09/M10 A303 RMK A01 T10921104  RH  091%=      5-min Rain = 0
KLD1 090520Z 27004KT M09/M10 A303 RMK A01 T10901102  RH  091%=      5-min Rain = 0
KLD1 090525Z 28005KT M09/M10 A303 RMK A01 T10881100  RH  091%=      5-min Rain = 0
KLD1 090530Z 28005KT M09/M10 A303 RMK A01 T10881099  RH  091%=      5-min Rain = 0
KLD1 090535Z 27004KT M09/M10 A303 RMK A01 T10881099  RH  091%=      5-min Rain = 0
KLD1 090540Z 27004KT M09/M10 A303 RMK A01 T10891100  RH  091%=      5-min Rain = 0
KLD1 090545Z 27004KT M09/M10 A3029 RMK A01 T10881100  RH  091%=      5-min Rain = 0
KLD1 090550Z 28004KT M09/M10 A3029 RMK A01 T10891101  RH  091%=      5-min Rain = 0
KLD1 090555Z 28003KT M09/M10 A3029 RMK A01 T10901102  RH  091%=      5-min Rain = 0

Page generated in 0.0248 seconds.